createdAt,value
2019-01-09T00:01:47.162Z,99.993896
2019-01-09T00:07:11.035Z,99.993896
2019-01-09T00:12:43.991Z,99.951172
2019-01-09T00:18:07.874Z,98.138428
2019-01-09T00:23:33.926Z,98.291016
2019-01-09T00:28:58.535Z,97.875977
2019-01-09T00:34:33.352Z,98.706055
2019-01-09T00:39:56.304Z,98.498535
2019-01-09T00:45:20.429Z,97.979736
2019-01-09T00:50:53.071Z,98.706055
2019-01-09T00:56:24.962Z,98.291016
2019-01-09T01:01:57.516Z,99.121094
2019-01-09T01:07:20.794Z,99.475098
2019-01-09T01:12:53.073Z,98.748779
2019-01-09T01:18:25.363Z,98.4375
2019-01-09T01:23:59.258Z,98.33374
2019-01-09T01:29:30.510Z,99.731445
2019-01-09T01:35:04.883Z,98.4375
2019-01-09T01:40:37.889Z,98.54126
2019-01-09T01:46:02.357Z,99.060059
2019-01-09T01:51:27.815Z,98.852539
2019-01-09T01:56:50.574Z,99.578857
2019-01-09T02:02:23.119Z,99.682617
2019-01-09T02:07:46.036Z,98.809814
2019-01-09T02:13:18.931Z,99.578857
2019-01-09T02:18:43.151Z,98.706055
2019-01-09T02:24:18.703Z,98.187256
2019-01-09T02:29:42.424Z,98.748779
2019-01-09T02:35:05.151Z,97.607422
2019-01-09T02:40:39.423Z,96.466064
2019-01-09T02:46:04.046Z,96.148682
2019-01-09T02:51:36.892Z,95.318604
2019-01-09T02:57:11.514Z,95.88623
2019-01-09T03:02:34.751Z,96.923828
2019-01-09T03:07:59.485Z,98.480225
2019-01-09T03:13:36.108Z,98.010254
2019-01-09T03:18:59.763Z,95.88623
2019-01-09T03:24:23.056Z,93.493652
2019-01-09T03:29:56.153Z,90.85083
2019-01-09T03:35:28.394Z,89.813232
2019-01-09T03:40:51.804Z,90.368652
2019-01-09T03:46:24.294Z,87.628174
2019-01-09T03:51:58.917Z,88.916016
2019-01-09T03:57:35.092Z,91.247559
2019-01-09T04:02:59.266Z,89.123535
2019-01-09T04:08:22.419Z,90.618896
2019-01-09T04:13:58.998Z,92.224121
2019-01-09T04:19:23.358Z,91.705322
2019-01-09T04:24:46.490Z,91.394043
2019-01-09T04:30:12.246Z,92.889404
2019-01-09T04:35:34.999Z,93.725586
2019-01-09T04:41:09.144Z,94.598389
2019-01-09T04:46:43.910Z,93.933105
2019-01-09T04:52:17.814Z,95.64209
2019-01-09T04:57:40.838Z,95.495605
2019-01-09T05:03:15.949Z,95.599365
2019-01-09T05:08:39.851Z,94.927979
2019-01-09T05:14:03.694Z,94.720459
2019-01-09T05:19:38.373Z,94.470215
2019-01-09T05:25:10.547Z,93.536377
2019-01-09T05:30:43.765Z,92.700195
2019-01-09T05:36:17.845Z,91.870117
2019-01-09T05:41:49.585Z,93.890381
2019-01-09T05:47:13.718Z,91.143799
2019-01-09T05:52:36.567Z,90.264893
2019-01-09T05:58:08.937Z,89.953613
2019-01-09T06:03:33.062Z,90.515137
2019-01-09T06:08:56.538Z,91.143799
2019-01-09T06:14:30.219Z,92.181396
2019-01-09T06:19:53.362Z,91.516113
2019-01-09T06:25:16.132Z,92.346191
2019-01-09T06:30:51.818Z,94.158936
2019-01-09T06:36:25.379Z,94.366455
2019-01-09T06:41:48.218Z,94.885254
2019-01-09T06:47:11.111Z,95.349121
2019-01-09T06:52:33.929Z,95.86792
2019-01-09T06:57:57.086Z,96.490479
2019-01-09T07:03:20.190Z,97.161865
2019-01-09T07:08:43.941Z,96.594238
2019-01-09T07:14:06.753Z,97.576904
2019-01-09T07:19:29.523Z,97.473145
2019-01-09T07:25:02.412Z,96.075439
2019-01-09T07:30:25.331Z,94.616699
2019-01-09T07:35:57.228Z,92.700195
2019-01-09T07:41:29.462Z,92.950439
2019-01-09T07:46:52.859Z,90.515137
2019-01-09T07:52:27.371Z,91.601562
2019-01-09T07:58:00.557Z,89.202881
2019-01-09T08:03:32.305Z,86.981201
2019-01-09T08:08:55.280Z,87.084961
2019-01-09T08:14:18.509Z,88.061523
2019-01-09T08:19:51.096Z,86.291504
2019-01-09T08:25:14.187Z,86.248779
2019-01-09T08:30:45.984Z,85.522461
2019-01-09T08:36:09.170Z,85.418701
2019-01-09T08:41:32.940Z,83.856201
2019-01-09T08:46:57.158Z,82.15332
2019-01-09T08:52:30.000Z,82.15332
2019-01-09T08:58:02.307Z,80.560303
2019-01-09T09:03:26.590Z,79.797363
2019-01-09T09:08:48.742Z,81.561279
2019-01-09T09:14:13.748Z,78.924561
2019-01-09T09:19:36.828Z,79.272461
2019-01-09T09:25:09.668Z,79.272461
2019-01-09T09:30:42.970Z,79.47998
2019-01-09T09:36:15.942Z,79.376221
2019-01-09T09:41:53.192Z,77.783203
2019-01-09T09:47:29.246Z,76.745605
2019-01-09T09:53:01.921Z,78.68042
2019-01-09T09:58:38.611Z,78.057861
2019-01-09T10:04:02.848Z,80.34668
2019-01-09T10:09:40.159Z,75.744629
2019-01-09T10:15:14.956Z,77.783203
2019-01-09T10:20:48.361Z,76.263428
2019-01-09T10:26:20.680Z,78.887939
2019-01-09T10:31:55.275Z,76.605225
2019-01-09T10:37:27.295Z,77.435303
2019-01-09T10:42:51.649Z,76.263428
2019-01-09T10:48:23.644Z,77.093506
2019-01-09T10:53:56.585Z,77.087402
2019-01-09T10:59:30.505Z,73.876953
2019-01-09T11:04:54.858Z,75.360107
2019-01-09T11:10:17.956Z,74.87793
2019-01-09T11:15:51.370Z,74.945068
2019-01-09T11:21:23.231Z,74.87793
2019-01-09T11:26:46.817Z,75.708008
2019-01-09T11:32:11.703Z,74.914551
2019-01-09T11:37:34.977Z,75.189209
2019-01-09T11:42:57.761Z,76.434326
2019-01-09T11:48:33.827Z,74.67041
2019-01-09T11:53:56.827Z,73.150635
2019-01-09T11:59:19.463Z,71.630859
2019-01-09T12:04:51.092Z,71.21582
2019-01-09T12:10:29.672Z,69.067383
2019-01-09T12:15:57.754Z,66.210938
2019-01-09T12:21:22.308Z,65.765381
2019-01-09T12:26:47.549Z,66.619873
2019-01-09T12:32:10.820Z,71.5271
2019-01-09T12:37:33.545Z,71.942139
2019-01-09T12:42:57.893Z,71.838379
2019-01-09T12:48:20.687Z,70.593262
2019-01-09T12:53:44.463Z,70.526123
2019-01-09T12:59:09.426Z,67.034912
2019-01-09T13:04:34.690Z,70.489502
2019-01-09T13:09:57.480Z,70.281982
2019-01-09T13:15:20.157Z,70.831299
2019-01-09T13:20:43.033Z,70.074463
2019-01-09T13:26:06.948Z,68.518066
2019-01-09T13:31:29.607Z,69.763184
2019-01-09T13:36:52.381Z,71.246338
2019-01-09T13:42:15.173Z,71.112061
2019-01-09T13:47:37.859Z,71.734619
2019-01-09T13:53:01.293Z,71.038818
2019-01-09T13:58:24.244Z,70.20874
2019-01-09T14:03:47.973Z,68.408203
2019-01-09T14:09:21.287Z,71.209717
2019-01-09T14:14:51.476Z,71.105957
2019-01-09T14:20:14.737Z,71.520996
2019-01-09T14:25:36.573Z,71.520996
2019-01-09T14:31:09.187Z,72.766113
2019-01-09T14:36:32.102Z,72.796631
2019-01-09T14:41:55.058Z,73.736572
2019-01-09T14:47:17.801Z,74.359131
2019-01-09T14:52:41.463Z,73.66333
2019-01-09T14:58:06.370Z,73.00415
2019-01-09T15:03:29.058Z,73.321533
2019-01-09T15:08:52.974Z,73.87085
2019-01-09T15:14:15.845Z,74.597168
2019-01-09T15:19:41.468Z,74.285889
2019-01-09T15:25:06.020Z,75.640869
2019-01-09T15:30:33.403Z,76.507568
2019-01-09T15:35:56.196Z,75.775146
2019-01-09T15:41:30.795Z,75.048828
2019-01-09T15:46:53.637Z,76.434326
2019-01-09T15:52:17.830Z,75.708008
2019-01-09T15:57:42.475Z,75.189209
2019-01-09T16:03:07.640Z,75.744629
2019-01-09T16:08:31.146Z,75.537109
2019-01-09T16:13:54.586Z,74.389648
2019-01-09T16:19:17.402Z,75.048828
2019-01-09T16:24:41.941Z,75.152588
2019-01-09T16:30:06.238Z,75.463867
2019-01-09T16:35:29.054Z,76.086426
2019-01-09T16:40:53.442Z,75.744629
2019-01-09T16:46:16.987Z,75.775146
2019-01-09T16:51:39.733Z,75.360107
2019-01-09T16:57:12.978Z,75.982666
2019-01-09T17:02:37.771Z,76.470947
2019-01-09T17:08:00.566Z,75.427246
2019-01-09T17:13:23.554Z,78.588867
2019-01-09T17:18:47.086Z,77.441406
2019-01-09T17:24:09.239Z,79.418945
2019-01-09T17:29:31.987Z,80.395508
2019-01-09T17:34:55.721Z,80.914307
2019-01-09T17:40:20.039Z,79.003906
2019-01-09T17:45:42.823Z,76.611328
2019-01-09T17:51:05.676Z,77.233887
2019-01-09T17:56:28.461Z,79.418945
2019-01-09T18:01:51.134Z,77.441406
2019-01-09T18:07:24.920Z,77.301025
2019-01-09T18:12:49.092Z,75.537109
2019-01-09T18:18:11.783Z,78.277588
2019-01-09T18:23:45.493Z,75.878906
2019-01-09T18:29:18.839Z,75.848389
2019-01-09T18:34:50.313Z,75.115967
2019-01-09T18:40:13.114Z,75.256348
2019-01-09T18:45:37.861Z,76.403809
2019-01-09T18:51:01.222Z,76.196289
2019-01-09T18:56:24.452Z,75.671387
2019-01-09T19:01:47.885Z,74.530029
2019-01-09T19:07:12.826Z,75.567627
2019-01-09T19:12:35.573Z,76.855469
2019-01-09T19:17:59.286Z,77.929688
2019-01-09T19:23:32.525Z,78.033447
2019-01-09T19:28:55.527Z,78.137207
2019-01-09T19:34:28.672Z,77.722168
2019-01-09T19:40:02.321Z,77.618408
2019-01-09T19:45:29.486Z,76.885986
2019-01-09T19:50:52.212Z,77.55127
2019-01-09T19:56:17.832Z,78.521729
2019-01-09T20:01:41.528Z,78.729248
2019-01-09T20:07:04.921Z,79.046631
2019-01-09T20:12:37.449Z,77.026367
2019-01-09T20:18:00.893Z,76.403809
2019-01-09T20:23:23.978Z,77.166748
2019-01-09T20:28:47.529Z,77.166748
2019-01-09T20:34:10.414Z,77.89917
2019-01-09T20:39:33.763Z,76.330566
2019-01-09T20:45:06.837Z,75.811768
2019-01-09T20:50:43.456Z,75.708008
2019-01-09T20:56:48.843Z,78.594971
2019-01-09T21:02:43.249Z,77.410889
2019-01-09T21:08:16.080Z,78.070068
2019-01-09T21:13:39.161Z,78.69873
2019-01-09T21:19:14.527Z,77.410889
2019-01-09T21:24:47.538Z,78.491211
2019-01-09T21:30:10.630Z,79.882812
2019-01-09T21:35:33.681Z,79.986572
2019-01-09T21:40:56.692Z,82.116699
2019-01-09T21:46:20.846Z,82.427979
2019-01-09T21:51:44.175Z,82.116699
2019-01-09T21:57:08.338Z,83.26416
2019-01-09T22:02:33.678Z,84.869385
2019-01-09T22:07:59.093Z,82.952881
2019-01-09T22:13:22.644Z,84.100342
2019-01-09T22:18:46.411Z,83.26416
2019-01-09T22:24:09.155Z,83.26416
2019-01-09T22:29:32.012Z,84.100342
2019-01-09T22:34:54.721Z,84.869385
2019-01-09T22:40:17.442Z,84.661865
2019-01-09T22:45:40.206Z,84.765625
2019-01-09T22:51:03.435Z,85.394287
2019-01-09T22:56:26.368Z,84.869385
2019-01-09T23:01:50.167Z,86.474609
2019-01-09T23:07:13.789Z,87.524414
2019-01-09T23:12:38.381Z,87.420654
2019-01-09T23:18:04.151Z,86.999512
2019-01-09T23:23:31.633Z,87.731934
2019-01-09T23:28:55.289Z,88.61084
2019-01-09T23:34:18.258Z,88.464355
2019-01-09T23:39:42.669Z,88.146973
2019-01-09T23:45:05.960Z,88.360596
2019-01-09T23:50:30.927Z,88.7146
2019-01-09T23:55:53.899Z,88.146973
